2AL7 weather

Mount Aero Lake Farm Airport
Hanceville, Alabama, United States

Public forecast

Using degrees Fahrenheit for public forecast. Weather courtesy of forecast.io.

Closest aviation weather report (METAR) to Mount Aero Lake Farm Airport

Closest report is Cullman Regional Airport-Folsom Field, 14.1 nm (26.0 km) NNW. Retrieved 2019/10/23 11:35 UTC (18 minutes ago):

KCMD 231135Z AUTO 00000KT 10SM CLR 03/02 A3019 RMK AO2 T00250017

Closest aviation forecast (TAF) to Mount Aero Lake Farm Airport

Closest forecast is Birmingham-Shuttlesworth International Airport, 30.1 nm (55.7 km) S. Retrieved 2019/10/23 06:22 UTC (6 hours ago):

TAF KBHM 230520Z 2306/2406 VRB04KT P6SM SKC